sensor_id;sensor_type;location;lat;lon;timestamp;pressure;altitude;pressure_sealevel;temperature;humidity
42601;BME280;28229;48.856;9.088;2023-03-23T00:00:53;97372.09;;;12.66;55.21
42601;BME280;28229;48.856;9.088;2023-03-23T00:03:21;97371.94;;;12.73;55.35
42601;BME280;28229;48.856;9.088;2023-03-23T00:05:48;97376.44;;;12.77;54.18
42601;BME280;28229;48.856;9.088;2023-03-23T00:08:18;97373.56;;;12.79;54.19
42601;BME280;28229;48.856;9.088;2023-03-23T00:10:50;97363.00;;;12.79;54.13
42601;BME280;28229;48.856;9.088;2023-03-23T00:13:23;97361.00;;;12.86;53.39
42601;BME280;28229;48.856;9.088;2023-03-23T00:15:50;97374.19;;;12.86;53.88
42601;BME280;28229;48.856;9.088;2023-03-23T00:18:21;97371.91;;;12.95;53.42
42601;BME280;28229;48.856;9.088;2023-03-23T00:20:53;97371.44;;;12.98;53.70
42601;BME280;28229;48.856;9.088;2023-03-23T00:23:23;97371.81;;;13.07;53.31
42601;BME280;28229;48.856;9.088;2023-03-23T00:25:55;97367.25;;;13.02;53.68
42601;BME280;28229;48.856;9.088;2023-03-23T00:28:23;97368.09;;;13.08;53.66
42601;BME280;28229;48.856;9.088;2023-03-23T00:31:01;97359.38;;;13.07;53.36
42601;BME280;28229;48.856;9.088;2023-03-23T00:33:30;97359.69;;;13.11;53.43
42601;BME280;28229;48.856;9.088;2023-03-23T00:35:59;97354.09;;;13.07;54.15
42601;BME280;28229;48.856;9.088;2023-03-23T00:38:25;97350.75;;;13.12;54.01
42601;BME280;28229;48.856;9.088;2023-03-23T00:40:53;97347.03;;;13.13;53.97
42601;BME280;28229;48.856;9.088;2023-03-23T00:43:21;97343.59;;;13.12;54.42
42601;BME280;28229;48.856;9.088;2023-03-23T00:45:51;97340.66;;;13.09;54.25
42601;BME280;28229;48.856;9.088;2023-03-23T00:48:21;97336.66;;;13.06;54.80
42601;BME280;28229;48.856;9.088;2023-03-23T00:50:48;97334.28;;;13.05;55.10
42601;BME280;28229;48.856;9.088;2023-03-23T00:53:15;97326.84;;;13.02;55.24
42601;BME280;28229;48.856;9.088;2023-03-23T00:55:43;97319.72;;;13.02;54.67
42601;BME280;28229;48.856;9.088;2023-03-23T00:58:10;97316.59;;;13.05;54.85
42601;BME280;28229;48.856;9.088;2023-03-23T01:00:38;97319.53;;;13.09;54.63
42601;BME280;28229;48.856;9.088;2023-03-23T01:03:05;97307.38;;;13.08;54.96
42601;BME280;28229;48.856;9.088;2023-03-23T01:05:36;97309.81;;;13.14;54.94
42601;BME280;28229;48.856;9.088;2023-03-23T01:08:03;97308.47;;;13.12;55.17
42601;BME280;28229;48.856;9.088;2023-03-23T01:10:31;97308.97;;;13.09;55.43
42601;BME280;28229;48.856;9.088;2023-03-23T01:13:05;97307.41;;;13.13;55.20
42601;BME280;28229;48.856;9.088;2023-03-23T01:15:32;97305.31;;;13.15;54.50
42601;BME280;28229;48.856;9.088;2023-03-23T01:17:58;97299.00;;;13.16;54.18
42601;BME280;28229;48.856;9.088;2023-03-23T01:20:25;97304.88;;;13.23;53.43
42601;BME280;28229;48.856;9.088;2023-03-23T01:22:54;97311.00;;;13.29;52.90
42601;BME280;28229;48.856;9.088;2023-03-23T01:25:31;97305.97;;;13.27;53.33
42601;BME280;28229;48.856;9.088;2023-03-23T01:28:00;97300.19;;;13.30;53.46
42601;BME280;28229;48.856;9.088;2023-03-23T01:30:27;97299.41;;;13.30;53.60
42601;BME280;28229;48.856;9.088;2023-03-23T01:32:54;97299.13;;;13.26;53.73
42601;BME280;28229;48.856;9.088;2023-03-23T01:35:21;97294.81;;;13.20;54.10
42601;BME280;28229;48.856;9.088;2023-03-23T01:37:48;97293.78;;;13.21;53.85
42601;BME280;28229;48.856;9.088;2023-03-23T01:40:17;97290.63;;;13.24;53.32
42601;BME280;28229;48.856;9.088;2023-03-23T01:42:44;97287.19;;;13.24;53.65
42601;BME280;28229;48.856;9.088;2023-03-23T01:47:55;97274.28;;;13.27;53.12
42601;BME280;28229;48.856;9.088;2023-03-23T01:50:24;97284.34;;;13.30;52.78
42601;BME280;28229;48.856;9.088;2023-03-23T01:52:53;97274.28;;;13.27;53.02
42601;BME280;28229;48.856;9.088;2023-03-23T01:55:21;97273.31;;;13.33;53.02
42601;BME280;28229;48.856;9.088;2023-03-23T01:57:49;97276.66;;;13.29;53.34
42601;BME280;28229;48.856;9.088;2023-03-23T02:00:17;97271.63;;;13.27;52.75
42601;BME280;28229;48.856;9.088;2023-03-23T02:02:52;97275.88;;;13.28;53.38
42601;BME280;28229;48.856;9.088;2023-03-23T02:05:30;97276.38;;;13.25;52.85
42601;BME280;28229;48.856;9.088;2023-03-23T02:08:10;97273.19;;;13.23;52.45
42601;BME280;28229;48.856;9.088;2023-03-23T02:10:39;97273.19;;;13.23;52.29
42601;BME280;28229;48.856;9.088;2023-03-23T02:13:08;97274.22;;;13.22;52.31
42601;BME280;28229;48.856;9.088;2023-03-23T02:21:31;97266.72;;;13.09;52.97
42601;BME280;28229;48.856;9.088;2023-03-23T02:27:12;97262.13;;;12.99;52.60
42601;BME280;28229;48.856;9.088;2023-03-23T02:35:28;97254.97;;;12.94;53.00
42601;BME280;28229;48.856;9.088;2023-03-23T02:38:01;97242.50;;;12.90;53.08
42601;BME280;28229;48.856;9.088;2023-03-23T02:40:35;97229.06;;;12.91;53.67
42601;BME280;28229;48.856;9.088;2023-03-23T02:43:07;97230.66;;;12.92;53.61
42601;BME280;28229;48.856;9.088;2023-03-23T02:45:36;97239.13;;;12.94;53.75
42601;BME280;28229;48.856;9.088;2023-03-23T02:48:05;97227.44;;;12.90;53.91
42601;BME280;28229;48.856;9.088;2023-03-23T02:50:33;97221.38;;;12.90;54.02
42601;BME280;28229;48.856;9.088;2023-03-23T02:53:07;97217.41;;;12.87;53.98
42601;BME280;28229;48.856;9.088;2023-03-23T02:55:36;97216.09;;;12.90;54.01
42601;BME280;28229;48.856;9.088;2023-03-23T02:58:10;97216.34;;;12.88;54.15
42601;BME280;28229;48.856;9.088;2023-03-23T03:00:38;97206.84;;;12.87;54.50
42601;BME280;28229;48.856;9.088;2023-03-23T03:03:06;97212.06;;;12.82;54.74
42601;BME280;28229;48.856;9.088;2023-03-23T03:06:02;97208.06;;;12.80;54.79
42601;BME280;28229;48.856;9.088;2023-03-23T03:08:41;97206.31;;;12.85;54.37
42601;BME280;28229;48.856;9.088;2023-03-23T03:11:14;97207.09;;;12.86;54.73
42601;BME280;28229;48.856;9.088;2023-03-23T03:16:31;97217.91;;;12.84;54.44
42601;BME280;28229;48.856;9.088;2023-03-23T03:21:43;97217.75;;;12.96;54.24
42601;BME280;28229;48.856;9.088;2023-03-23T03:24:14;97214.88;;;13.03;53.91
42601;BME280;28229;48.856;9.088;2023-03-23T03:26:44;97210.97;;;13.05;54.44
42601;BME280;28229;48.856;9.088;2023-03-23T03:29:30;97194.34;;;13.10;53.70
42601;BME280;28229;48.856;9.088;2023-03-23T03:31:59;97197.56;;;13.12;53.85
42601;BME280;28229;48.856;9.088;2023-03-23T03:34:27;97203.69;;;13.18;53.60
42601;BME280;28229;48.856;9.088;2023-03-23T03:36:55;97203.94;;;13.16;53.59
42601;BME280;28229;48.856;9.088;2023-03-23T03:39:26;97209.22;;;13.16;53.50
42601;BME280;28229;48.856;9.088;2023-03-23T03:41:53;97216.66;;;13.24;53.22
42601;BME280;28229;48.856;9.088;2023-03-23T03:44:20;97203.72;;;13.23;53.21
42601;BME280;28229;48.856;9.088;2023-03-23T03:46:47;97203.44;;;13.24;53.13
42601;BME280;28229;48.856;9.088;2023-03-23T03:49:13;97198.75;;;13.26;52.82
42601;BME280;28229;48.856;9.088;2023-03-23T03:51:41;97199.78;;;13.25;53.16
42601;BME280;28229;48.856;9.088;2023-03-23T03:54:14;97193.47;;;13.26;52.54
42601;BME280;28229;48.856;9.088;2023-03-23T03:56:41;97203.22;;;13.26;52.60
42601;BME280;28229;48.856;9.088;2023-03-23T03:59:43;97200.28;;;13.22;52.86
42601;BME280;28229;48.856;9.088;2023-03-23T04:02:45;97197.59;;;13.17;53.07
42601;BME280;28229;48.856;9.088;2023-03-23T04:05:20;97208.19;;;13.22;53.10
42601;BME280;28229;48.856;9.088;2023-03-23T04:07:49;97211.91;;;13.21;53.14
42601;BME280;28229;48.856;9.088;2023-03-23T04:10:19;97204.72;;;13.17;53.18
42601;BME280;28229;48.856;9.088;2023-03-23T04:12:48;97206.31;;;13.18;53.28
42601;BME280;28229;48.856;9.088;2023-03-23T04:15:48;97206.06;;;13.19;53.12
42601;BME280;28229;48.856;9.088;2023-03-23T04:18:15;97209.50;;;13.20;53.48
42601;BME280;28229;48.856;9.088;2023-03-23T04:20:44;97221.66;;;13.21;53.00
42601;BME280;28229;48.856;9.088;2023-03-23T04:23:14;97207.94;;;13.24;53.38
42601;BME280;28229;48.856;9.088;2023-03-23T04:25:46;97212.41;;;13.18;53.83
42601;BME280;28229;48.856;9.088;2023-03-23T04:28:14;97204.47;;;13.18;53.72
42601;BME280;28229;48.856;9.088;2023-03-23T04:30:52;97209.47;;;13.14;54.00
42601;BME280;28229;48.856;9.088;2023-03-23T04:33:25;97196.06;;;13.21;53.67
42601;BME280;28229;48.856;9.088;2023-03-23T04:35:55;97205.81;;;13.21;53.76
42601;BME280;28229;48.856;9.088;2023-03-23T04:38:34;97189.25;;;13.30;53.21
42601;BME280;28229;48.856;9.088;2023-03-23T04:41:10;97194.78;;;13.29;53.50
42601;BME280;28229;48.856;9.088;2023-03-23T04:43:49;97197.25;;;13.36;53.56
42601;BME280;28229;48.856;9.088;2023-03-23T04:47:01;97194.06;;;13.33;53.79
42601;BME280;28229;48.856;9.088;2023-03-23T04:49:30;97194.13;;;13.39;53.53
42601;BME280;28229;48.856;9.088;2023-03-23T04:52:08;97193.03;;;13.40;53.35
42601;BME280;28229;48.856;9.088;2023-03-23T04:54:42;97208.97;;;13.50;53.07
42601;BME280;28229;48.856;9.088;2023-03-23T04:57:08;97202.09;;;13.49;52.74
42601;BME280;28229;48.856;9.088;2023-03-23T04:59:39;97214.06;;;13.57;52.67
42601;BME280;28229;48.856;9.088;2023-03-23T05:02:17;97206.13;;;13.57;52.81
42601;BME280;28229;48.856;9.088;2023-03-23T05:04:46;97197.41;;;13.61;52.55
42601;BME280;28229;48.856;9.088;2023-03-23T05:07:17;97199.56;;;13.64;52.17
42601;BME280;28229;48.856;9.088;2023-03-23T05:09:47;97195.28;;;13.58;52.45
42601;BME280;28229;48.856;9.088;2023-03-23T05:12:15;97196.38;;;13.62;52.24
42601;BME280;28229;48.856;9.088;2023-03-23T05:14:49;97205.38;;;13.66;51.98
42601;BME280;28229;48.856;9.088;2023-03-23T05:17:18;97200.34;;;13.65;51.99
42601;BME280;28229;48.856;9.088;2023-03-23T05:19:47;97203.81;;;13.65;52.01
42601;BME280;28229;48.856;9.088;2023-03-23T05:22:41;97200.34;;;13.65;52.07
42601;BME280;28229;48.856;9.088;2023-03-23T05:25:19;97203.19;;;13.58;52.40
42601;BME280;28229;48.856;9.088;2023-03-23T05:27:50;97204.28;;;13.57;52.33
42601;BME280;28229;48.856;9.088;2023-03-23T05:30:38;97207.94;;;13.56;52.38
42601;BME280;28229;48.856;9.088;2023-03-23T05:33:05;97211.13;;;13.58;52.07
42601;BME280;28229;48.856;9.088;2023-03-23T05:35:52;97205.31;;;13.56;52.48
42601;BME280;28229;48.856;9.088;2023-03-23T05:38:25;97198.69;;;13.54;52.28
42601;BME280;28229;48.856;9.088;2023-03-23T05:40:58;97204.22;;;13.52;52.12
42601;BME280;28229;48.856;9.088;2023-03-23T05:43:30;97197.34;;;13.46;52.73
42601;BME280;28229;48.856;9.088;2023-03-23T05:46:12;97201.06;;;13.50;51.96
42601;BME280;28229;48.856;9.088;2023-03-23T05:48:39;97202.63;;;13.51;52.07
42601;BME280;28229;48.856;9.088;2023-03-23T05:51:32;97207.38;;;13.49;52.09
42601;BME280;28229;48.856;9.088;2023-03-23T05:54:25;97213.69;;;13.43;52.58
42601;BME280;28229;48.856;9.088;2023-03-23T05:57:07;97214.75;;;13.47;52.42
42601;BME280;28229;48.856;9.088;2023-03-23T05:59:51;97222.66;;;13.42;52.85
42601;BME280;28229;48.856;9.088;2023-03-23T06:02:50;97226.84;;;13.38;53.10
42601;BME280;28229;48.856;9.088;2023-03-23T06:05:27;97227.09;;;13.36;53.52
42601;BME280;28229;48.856;9.088;2023-03-23T06:08:21;97226.56;;;13.34;53.35
42601;BME280;28229;48.856;9.088;2023-03-23T06:11:04;97229.75;;;13.36;53.61
42601;BME280;28229;48.856;9.088;2023-03-23T06:13:48;97241.09;;;13.37;53.56
42601;BME280;28229;48.856;9.088;2023-03-23T06:16:37;97249.03;;;13.37;53.92
42601;BME280;28229;48.856;9.088;2023-03-23T06:19:11;97242.94;;;13.36;53.63
42601;BME280;28229;48.856;9.088;2023-03-23T06:21:57;97246.38;;;13.31;54.32
42601;BME280;28229;48.856;9.088;2023-03-23T06:24:37;97252.66;;;13.30;54.81
42601;BME280;28229;48.856;9.088;2023-03-23T06:27:04;97255.28;;;13.30;55.12
42601;BME280;28229;48.856;9.088;2023-03-23T06:29:33;97257.94;;;13.30;55.40
42601;BME280;28229;48.856;9.088;2023-03-23T06:32:39;97263.41;;;13.24;56.46
42601;BME280;28229;48.856;9.088;2023-03-23T06:35:23;97268.44;;;13.25;56.77
42601;BME280;28229;48.856;9.088;2023-03-23T06:38:14;97267.81;;;13.13;57.53
42601;BME280;28229;48.856;9.088;2023-03-23T06:41:04;97267.22;;;13.06;57.68
42601;BME280;28229;48.856;9.088;2023-03-23T06:43:48;97270.63;;;13.06;57.49
42601;BME280;28229;48.856;9.088;2023-03-23T06:49:56;97283.66;;;13.13;58.67
42601;BME280;28229;48.856;9.088;2023-03-23T06:52:37;97274.78;;;13.24;59.32
42601;BME280;28229;48.856;9.088;2023-03-23T07:04:37;97286.09;;;13.47;58.71
42601;BME280;28229;48.856;9.088;2023-03-23T07:07:59;97292.47;;;13.51;58.83
42601;BME280;28229;48.856;9.088;2023-03-23T07:11:32;97294.88;;;13.52;59.60
42601;BME280;28229;48.856;9.088;2023-03-23T07:14:07;97297.22;;;13.49;60.44
42601;BME280;28229;48.856;9.088;2023-03-23T07:16:36;97303.56;;;13.48;59.89
42601;BME280;28229;48.856;9.088;2023-03-23T07:19:12;97304.66;;;13.52;60.77
42601;BME280;28229;48.856;9.088;2023-03-23T07:21:42;97308.38;;;13.56;59.95
42601;BME280;28229;48.856;9.088;2023-03-23T07:24:14;97321.63;;;13.61;58.79
42601;BME280;28229;48.856;9.088;2023-03-23T07:27:09;97320.66;;;13.67;59.11
42601;BME280;28229;48.856;9.088;2023-03-23T07:29:46;97322.47;;;13.67;58.46
42601;BME280;28229;48.856;9.088;2023-03-23T07:32:23;97337.03;;;13.69;59.26
42601;BME280;28229;48.856;9.088;2023-03-23T07:35:11;97340.47;;;13.70;59.29
42601;BME280;28229;48.856;9.088;2023-03-23T07:38:08;97344.97;;;13.69;59.45
42601;BME280;28229;48.856;9.088;2023-03-23T07:40:50;97346.34;;;13.77;59.13
42601;BME280;28229;48.856;9.088;2023-03-23T07:43:27;97347.66;;;13.75;58.46
42601;BME280;28229;48.856;9.088;2023-03-23T07:46:28;97351.34;;;13.74;58.71
42601;BME280;28229;48.856;9.088;2023-03-23T07:49:39;97335.56;;;13.84;57.96
42601;BME280;28229;48.856;9.088;2023-03-23T07:52:26;97340.13;;;13.94;57.63
42601;BME280;28229;48.856;9.088;2023-03-23T07:55:13;97331.72;;;14.02;57.27
42601;BME280;28229;48.856;9.088;2023-03-23T07:58:12;97331.00;;;14.06;57.48
42601;BME280;28229;48.856;9.088;2023-03-23T08:01:00;97342.38;;;14.12;57.62
42601;BME280;28229;48.856;9.088;2023-03-23T08:03:38;97345.28;;;14.11;57.97
42601;BME280;28229;48.856;9.088;2023-03-23T08:16:43;97362.88;;;14.32;58.49
42601;BME280;28229;48.856;9.088;2023-03-23T08:19:43;97363.16;;;14.36;58.38
42601;BME280;28229;48.856;9.088;2023-03-23T08:22:27;97352.66;;;14.46;58.05
42601;BME280;28229;48.856;9.088;2023-03-23T08:25:30;97359.56;;;14.52;58.21
42601;BME280;28229;48.856;9.088;2023-03-23T08:28:36;97364.41;;;14.60;58.72
42601;BME280;28229;48.856;9.088;2023-03-23T08:31:23;97364.88;;;14.57;59.58
42601;BME280;28229;48.856;9.088;2023-03-23T08:34:24;97357.44;;;14.54;60.08
42601;BME280;28229;48.856;9.088;2023-03-23T08:37:25;97365.38;;;14.54;60.01
42601;BME280;28229;48.856;9.088;2023-03-23T08:40:22;97362.47;;;14.56;60.55
42601;BME280;28229;48.856;9.088;2023-03-23T08:43:47;97367.31;;;14.59;61.63
42601;BME280;28229;48.856;9.088;2023-03-23T08:46:45;97369.69;;;14.60;61.88
42601;BME280;28229;48.856;9.088;2023-03-23T08:49:42;97385.88;;;14.64;61.41
42601;BME280;28229;48.856;9.088;2023-03-23T08:52:53;97386.88;;;14.58;61.74
42601;BME280;28229;48.856;9.088;2023-03-23T08:55:50;97394.75;;;14.53;60.84
42601;BME280;28229;48.856;9.088;2023-03-23T08:58:47;97390.56;;;14.57;61.08
42601;BME280;28229;48.856;9.088;2023-03-23T09:01:45;97386.28;;;14.51;62.01
42601;BME280;28229;48.856;9.088;2023-03-23T09:04:56;97393.72;;;14.54;61.76
42601;BME280;28229;48.856;9.088;2023-03-23T09:07:50;97399.50;;;14.51;62.47
42601;BME280;28229;48.856;9.088;2023-03-23T09:10:27;97396.28;;;14.43;61.34
42601;BME280;28229;48.856;9.088;2023-03-23T09:13:31;97397.91;;;14.44;61.77
42601;BME280;28229;48.856;9.088;2023-03-23T09:16:16;97399.19;;;14.37;62.06
42601;BME280;28229;48.856;9.088;2023-03-23T09:18:44;97401.84;;;14.42;61.63
42601;BME280;28229;48.856;9.088;2023-03-23T09:21:19;97409.22;;;14.40;61.40
42601;BME280;28229;48.856;9.088;2023-03-23T09:24:02;97411.13;;;14.44;61.29
42601;BME280;28229;48.856;9.088;2023-03-23T09:26:38;97419.09;;;14.50;60.96
42601;BME280;28229;48.856;9.088;2023-03-23T09:29:07;97423.88;;;14.53;61.14
42601;BME280;28229;48.856;9.088;2023-03-23T09:32:24;97428.91;;;14.54;61.45
42601;BME280;28229;48.856;9.088;2023-03-23T09:38:37;97431.22;;;14.45;61.61
42601;BME280;28229;48.856;9.088;2023-03-23T09:44:57;97425.94;;;14.40;61.64
42601;BME280;28229;48.856;9.088;2023-03-23T09:47:45;97431.22;;;14.45;61.60
42601;BME280;28229;48.856;9.088;2023-03-23T09:50:19;97423.03;;;14.47;60.78
42601;BME280;28229;48.856;9.088;2023-03-23T09:53:08;97431.81;;;14.53;61.09
42601;BME280;28229;48.856;9.088;2023-03-23T09:55:38;97446.91;;;14.52;60.87
42601;BME280;28229;48.856;9.088;2023-03-23T09:58:20;97443.22;;;14.53;61.31
42601;BME280;28229;48.856;9.088;2023-03-23T10:00:59;97453.31;;;14.56;61.93
42601;BME280;28229;48.856;9.088;2023-03-23T10:03:39;97451.22;;;14.58;61.35
42601;BME280;28229;48.856;9.088;2023-03-23T10:06:16;97443.56;;;14.62;62.32
42601;BME280;28229;48.856;9.088;2023-03-23T10:08:57;97454.69;;;14.64;62.44
42601;BME280;28229;48.856;9.088;2023-03-23T10:17:13;97451.69;;;14.93;61.69
42601;BME280;28229;48.856;9.088;2023-03-23T10:22:12;97453.03;;;15.00;62.53
42601;BME280;28229;48.856;9.088;2023-03-23T10:24:49;97451.75;;;15.13;61.59
42601;BME280;28229;48.856;9.088;2023-03-23T10:27:38;97452.06;;;15.22;61.35
42601;BME280;28229;48.856;9.088;2023-03-23T10:32:53;97451.91;;;15.44;59.54
42601;BME280;28229;48.856;9.088;2023-03-23T10:35:36;97459.63;;;15.61;60.30
42601;BME280;28229;48.856;9.088;2023-03-23T10:38:09;97464.22;;;15.76;60.06
42601;BME280;28229;48.856;9.088;2023-03-23T10:40:49;97464.13;;;15.55;59.59
42601;BME280;28229;48.856;9.088;2023-03-23T10:43:16;97463.34;;;15.55;60.50
42601;BME280;28229;48.856;9.088;2023-03-23T10:45:45;97456.16;;;15.50;61.17
42601;BME280;28229;48.856;9.088;2023-03-23T10:48:20;97457.25;;;15.54;60.67
42601;BME280;28229;48.856;9.088;2023-03-23T10:50:50;97454.88;;;15.58;60.89
42601;BME280;28229;48.856;9.088;2023-03-23T10:53:23;97452.47;;;15.67;61.14
42601;BME280;28229;48.856;9.088;2023-03-23T10:55:49;97457.25;;;15.65;60.40
42601;BME280;28229;48.856;9.088;2023-03-23T10:58:30;97449.91;;;15.82;60.57
42601;BME280;28229;48.856;9.088;2023-03-23T11:00:59;97447.25;;;15.82;58.89
42601;BME280;28229;48.856;9.088;2023-03-23T11:03:39;97445.13;;;15.84;59.38
42601;BME280;28229;48.856;9.088;2023-03-23T11:06:09;97449.38;;;15.85;58.85
42601;BME280;28229;48.856;9.088;2023-03-23T11:08:48;97436.13;;;15.85;59.94
42601;BME280;28229;48.856;9.088;2023-03-23T11:11:18;97431.88;;;15.89;60.16
42601;BME280;28229;48.856;9.088;2023-03-23T11:13:49;97442.75;;;15.93;59.42
42601;BME280;28229;48.856;9.088;2023-03-23T11:16:32;97437.19;;;15.89;59.88
42601;BME280;28229;48.856;9.088;2023-03-23T11:19:11;97445.69;;;15.81;60.12
42601;BME280;28229;48.856;9.088;2023-03-23T11:21:38;97448.31;;;15.76;60.92
42601;BME280;28229;48.856;9.088;2023-03-23T11:24:05;97444.84;;;15.80;61.17
42601;BME280;28229;48.856;9.088;2023-03-23T11:26:33;97443.28;;;15.90;60.20
42601;BME280;28229;48.856;9.088;2023-03-23T11:29:16;97440.91;;;15.98;60.23
42601;BME280;28229;48.856;9.088;2023-03-23T11:31:46;97433.47;;;16.01;59.16
42601;BME280;28229;48.856;9.088;2023-03-23T11:34:35;97432.44;;;16.07;59.76
42601;BME280;28229;48.856;9.088;2023-03-23T11:37:09;97428.44;;;16.14;59.33
42601;BME280;28229;48.856;9.088;2023-03-23T11:39:54;97432.41;;;16.27;59.49
42601;BME280;28229;48.856;9.088;2023-03-23T11:45:21;97429.22;;;16.30;58.22
42601;BME280;28229;48.856;9.088;2023-03-23T11:50:33;97430.81;;;16.47;57.95
42601;BME280;28229;48.856;9.088;2023-03-23T11:53:16;97428.41;;;16.50;57.48
42601;BME280;28229;48.856;9.088;2023-03-23T11:58:18;97436.38;;;16.61;57.51
42601;BME280;28229;48.856;9.088;2023-03-23T12:03:44;97429.50;;;16.44;56.48
42601;BME280;28229;48.856;9.088;2023-03-23T12:06:45;97434.53;;;16.56;55.58
42601;BME280;28229;48.856;9.088;2023-03-23T12:14:53;97427.63;;;16.45;56.57
42601;BME280;28229;48.856;9.088;2023-03-23T12:17:56;97419.94;;;16.43;57.85
42601;BME280;28229;48.856;9.088;2023-03-23T12:20:45;97424.97;;;16.50;56.79
42601;BME280;28229;48.856;9.088;2023-03-23T12:23:31;97428.66;;;16.54;56.14
42601;BME280;28229;48.856;9.088;2023-03-23T12:26:28;97430.25;;;16.65;56.71
42601;BME280;28229;48.856;9.088;2023-03-23T12:34:54;97415.81;;;17.07;56.31
42601;BME280;28229;48.856;9.088;2023-03-23T12:37:35;97415.78;;;17.12;55.88
42601;BME280;28229;48.856;9.088;2023-03-23T12:40:32;97402.50;;;17.12;56.32
42601;BME280;28229;48.856;9.088;2023-03-23T12:43:27;97403.03;;;17.15;55.05
42601;BME280;28229;48.856;9.088;2023-03-23T12:48:47;97400.53;;;17.39;55.47
42601;BME280;28229;48.856;9.088;2023-03-23T12:51:17;97394.91;;;17.45;54.83
42601;BME280;28229;48.856;9.088;2023-03-23T12:56:37;97394.41;;;17.43;55.43
42601;BME280;28229;48.856;9.088;2023-03-23T13:01:46;97385.28;;;17.55;53.34
42601;BME280;28229;48.856;9.088;2023-03-23T13:04:17;97383.38;;;17.60;53.64
42601;BME280;28229;48.856;9.088;2023-03-23T13:06:46;97381.00;;;17.59;53.35
42601;BME280;28229;48.856;9.088;2023-03-23T13:09:19;97381.44;;;17.71;53.69
42601;BME280;28229;48.856;9.088;2023-03-23T13:11:48;97376.56;;;17.88;53.40
42601;BME280;28229;48.856;9.088;2023-03-23T13:14:41;97374.38;;;17.96;52.37
42601;BME280;28229;48.856;9.088;2023-03-23T13:17:41;97367.56;;;17.79;50.46
42601;BME280;28229;48.856;9.088;2023-03-23T13:20:50;97357.19;;;17.78;51.82
42601;BME280;28229;48.856;9.088;2023-03-23T13:25:56;97360.38;;;17.80;51.82
42601;BME280;28229;48.856;9.088;2023-03-23T13:28:29;97358.97;;;17.93;51.25
42601;BME280;28229;48.856;9.088;2023-03-23T13:33:32;97354.88;;;17.66;50.85
42601;BME280;28229;48.856;9.088;2023-03-23T13:36:09;97352.41;;;17.75;50.26
42601;BME280;28229;48.856;9.088;2023-03-23T13:38:37;97349.47;;;17.81;50.01
42601;BME280;28229;48.856;9.088;2023-03-23T13:41:10;97352.03;;;17.97;50.03
42601;BME280;28229;48.856;9.088;2023-03-23T13:43:38;97348.31;;;17.93;49.20
42601;BME280;28229;48.856;9.088;2023-03-23T13:46:10;97344.66;;;17.83;50.17
42601;BME280;28229;48.856;9.088;2023-03-23T13:48:50;97336.19;;;17.76;49.49
42601;BME280;28229;48.856;9.088;2023-03-23T13:51:46;97335.16;;;17.72;50.40
42601;BME280;28229;48.856;9.088;2023-03-23T13:54:23;97329.41;;;17.60;50.22
42601;BME280;28229;48.856;9.088;2023-03-23T13:57:01;97337.47;;;17.44;50.38
42601;BME280;28229;48.856;9.088;2023-03-23T13:59:31;97328.50;;;17.35;50.77
42601;BME280;28229;48.856;9.088;2023-03-23T14:07:56;97317.31;;;17.38;50.85
42601;BME280;28229;48.856;9.088;2023-03-23T14:11:09;97316.75;;;17.41;51.70
42601;BME280;28229;48.856;9.088;2023-03-23T14:16:14;97312.56;;;17.35;51.76
42601;BME280;28229;48.856;9.088;2023-03-23T14:18:49;97302.41;;;17.42;52.11
42601;BME280;28229;48.856;9.088;2023-03-23T14:21:31;97292.94;;;17.26;52.55
42601;BME280;28229;48.856;9.088;2023-03-23T14:24:05;97279.38;;;17.27;51.46
42601;BME280;28229;48.856;9.088;2023-03-23T14:26:34;97284.97;;;17.26;51.45
42601;BME280;28229;48.856;9.088;2023-03-23T14:29:03;97287.75;;;17.05;51.23
42601;BME280;28229;48.856;9.088;2023-03-23T14:31:30;97286.44;;;17.03;51.36
42601;BME280;28229;48.856;9.088;2023-03-23T14:34:02;97291.78;;;16.98;52.62
42601;BME280;28229;48.856;9.088;2023-03-23T14:36:30;97286.19;;;16.99;53.00
42601;BME280;28229;48.856;9.088;2023-03-23T14:39:07;97293.91;;;16.96;52.39
42601;BME280;28229;48.856;9.088;2023-03-23T14:41:39;97293.06;;;17.00;52.41
42601;BME280;28229;48.856;9.088;2023-03-23T14:44:08;97299.22;;;17.01;53.26
42601;BME280;28229;48.856;9.088;2023-03-23T14:46:36;97295.72;;;17.00;51.53
42601;BME280;28229;48.856;9.088;2023-03-23T14:49:04;97298.75;;;16.88;51.86
42601;BME280;28229;48.856;9.088;2023-03-23T14:51:30;97300.03;;;16.91;52.25
42601;BME280;28229;48.856;9.088;2023-03-23T14:53:59;97299.22;;;17.01;52.49
42601;BME280;28229;48.856;9.088;2023-03-23T14:56:35;97299.72;;;17.03;52.55
42601;BME280;28229;48.856;9.088;2023-03-23T14:59:05;97305.28;;;17.06;52.17
42601;BME280;28229;48.856;9.088;2023-03-23T15:01:34;97300.00;;;17.01;52.30
42601;BME280;28229;48.856;9.088;2023-03-23T15:06:30;97294.41;;;17.03;52.09
42601;BME280;28229;48.856;9.088;2023-03-23T15:09:02;97303.69;;;17.05;51.79
42601;BME280;28229;48.856;9.088;2023-03-23T15:11:34;97301.03;;;17.00;52.14
42601;BME280;28229;48.856;9.088;2023-03-23T15:14:22;97299.94;;;17.11;51.77
42601;BME280;28229;48.856;9.088;2023-03-23T15:16:51;97305.28;;;17.06;50.94
42601;BME280;28229;48.856;9.088;2023-03-23T15:19:22;97300.56;;;16.93;51.50
42601;BME280;28229;48.856;9.088;2023-03-23T15:22:15;97298.47;;;16.80;51.29
42601;BME280;28229;48.856;9.088;2023-03-23T15:24:44;97298.22;;;16.81;50.51
42601;BME280;28229;48.856;9.088;2023-03-23T15:27:15;97297.97;;;16.78;51.04
42601;BME280;28229;48.856;9.088;2023-03-23T15:32:21;97296.88;;;16.84;52.72
42601;BME280;28229;48.856;9.088;2023-03-23T15:34:47;97286.47;;;16.92;52.81
42601;BME280;28229;48.856;9.088;2023-03-23T15:37:27;97284.63;;;16.88;51.59
42601;BME280;28229;48.856;9.088;2023-03-23T15:39:55;97284.66;;;16.83;50.75
42601;BME280;28229;48.856;9.088;2023-03-23T15:45:24;97299.63;;;16.58;50.89
42601;BME280;28229;48.856;9.088;2023-03-23T15:47:51;97291.41;;;16.60;50.98
42601;BME280;28229;48.856;9.088;2023-03-23T15:50:33;97289.00;;;16.58;50.76